Time,TemperatureF,DewpointF,PressureIn,WindDirection,WindDirectionDegrees,WindSpeedMPH,WindSpeedGustMPH,Humidity,HourlyPrecipIn,Conditions,Clouds,dailyrainin,SolarRadiationWatts/m^2,UVIndex,SoftwareType,DateUTC
2026-08-31 00:04:57,72.3,69.8,30.15,NE,37,0.1,2.3,92,0.00,,,0.00,0,0,n/a,2026-08-31T04:04:57Z
2026-08-31 00:09:58,72.3,69.8,30.15,NE,37,0.1,2.3,92,0.00,,,0.00,0,0,n/a,2026-08-31T04:09:58Z
2026-08-31 00:14:59,72.2,69.7,30.15,NE,37,0.1,2.3,92,0.00,,,0.00,0,0,n/a,2026-08-31T04:14:59Z
2026-08-31 00:19:57,72.1,69.6,30.14,NE,37,0.1,2.3,92,0.00,,,0.00,0,0,n/a,2026-08-31T04:19:57Z
2026-08-31 00:24:57,71.9,69.4,30.14,East,88,0.4,2.3,92,0.00,,,0.00,0,0,n/a,2026-08-31T04:24:57Z
2026-08-31 00:29:56,71.7,69.3,30.14,SE,132,0.7,2.3,92,0.00,,,0.00,0,0,n/a,2026-08-31T04:29:56Z
2026-08-31 00:34:58,71.5,69.1,30.14,SSE,151,0.1,2.3,92,0.00,,,0.00,0,0,n/a,2026-08-31T04:34:58Z
2026-08-31 00:39:57,71.4,69,30.14,ESE,110,0,1.2,92,0.00,,,0.00,0,0,n/a,2026-08-31T04:39:57Z
2026-08-31 00:44:59,71.2,68.8,30.14,ESE,110,0,0,92,0.00,,,0.00,0,0,n/a,2026-08-31T04:44:59Z
2026-08-31 00:49:59,71.1,68.7,30.14,ESE,110,0.1,2.3,92,0.00,,,0.00,0,0,n/a,2026-08-31T04:49:59Z
2026-08-31 00:54:59,71.1,68.7,30.14,ESE,110,0,1.2,92,0.00,,,0.00,0,0,n/a,2026-08-31T04:54:59Z
2026-08-31 00:59:56,71,68.6,30.14,ESE,110,0,0,92,0.00,,,0.00,0,0,n/a,2026-08-31T04:59:56Z
2026-08-31 01:04:59,70.9,68.5,30.14,ESE,110,0,0,92,0.00,,,0.00,0,0,n/a,2026-08-31T05:04:59Z
2026-08-31 01:09:56,70.8,68.4,30.14,ESE,110,0,0,92,0.00,,,0.00,0,0,n/a,2026-08-31T05:09:56Z
2026-08-31 01:14:57,70.7,68.3,30.14,ESE,110,0,0,92,0.00,,,0.00,0,0,n/a,2026-08-31T05:14:57Z
2026-08-31 01:19:56,70.5,68.1,30.14,ESE,110,0,0,92,0.00,,,0.00,0,0,n/a,2026-08-31T05:19:56Z
2026-08-31 01:24:59,70.5,68.3,30.14,ESE,110,0.1,2.3,92.8,0.00,,,0.00,0,0,n/a,2026-08-31T05:24:59Z
2026-08-31 01:29:57,70.5,68.1,30.14,ESE,110,0,2.3,92.1,0.00,,,0.00,0,0,n/a,2026-08-31T05:29:57Z
2026-08-31 01:34:58,70.4,68,30.14,ESE,110,0.1,1.2,92,0.00,,,0.00,0,0,n/a,2026-08-31T05:34:58Z
2026-08-31 01:39:56,70.3,67.9,30.14,SE,130,1.2,2.3,92.2,0.00,,,0.00,0,0,n/a,2026-08-31T05:39:56Z
2026-08-31 01:44:58,70.2,68.1,30.14,South,184,0.8,2.3,93,0.00,,,0.00,0,0,n/a,2026-08-31T05:44:58Z
2026-08-31 01:49:58,70.3,68.2,30.14,South,182,0.4,2.3,93,0.00,,,0.00,0,0,n/a,2026-08-31T05:49:58Z
2026-08-31 01:54:57,70.3,68.2,30.14,South,181,0,0,93,0.00,,,0.00,0,0,n/a,2026-08-31T05:54:57Z
2026-08-31 01:59:58,70.3,68.2,30.14,South,181,0,2.3,93,0.00,,,0.00,0,0,n/a,2026-08-31T05:59:58Z
2026-08-31 02:04:59,70.3,68.2,30.13,SSE,147,0.5,2.3,93,0.00,,,0.00,0,0,n/a,2026-08-31T06:04:59Z
2026-08-31 02:09:55,70.3,68.2,30.13,SE,139,0,2.3,93,0.00,,,0.00,0,0,n/a,2026-08-31T06:09:55Z
2026-08-31 02:14:57,70.2,68.1,30.13,SSE,149,0.8,2.3,93,0.00,,,0.00,0,0,n/a,2026-08-31T06:14:57Z
2026-08-31 02:19:56,70.1,68,30.13,ESE,103,0.2,1.2,93,0.00,,,0.00,0,0,n/a,2026-08-31T06:19:56Z
2026-08-31 02:24:59,70,67.9,30.13,East,101,0.2,1.2,93,0.00,,,0.00,0,0,n/a,2026-08-31T06:24:59Z
2026-08-31 02:29:57,69.9,67.8,30.13,East,101,0.2,2.3,93,0.00,,,0.00,0,0,n/a,2026-08-31T06:29:57Z
2026-08-31 02:34:57,69.9,67.8,30.13,NE,42,0.3,2.3,93,0.00,,,0.00,0,0,n/a,2026-08-31T06:34:57Z
2026-08-31 02:39:59,70,68.1,30.13,NNE,19,0.9,2.3,93.6,0.00,,,0.00,0,0,n/a,2026-08-31T06:39:59Z
2026-08-31 02:44:59,70.1,68.1,30.13,NNE,19,0,2.3,93.3,0.00,,,0.00,0,0,n/a,2026-08-31T06:44:59Z
2026-08-31 02:49:59,70.1,68.1,30.13,NNE,19,0.1,1.2,93.3,0.00,,,0.00,0,0,n/a,2026-08-31T06:49:59Z
2026-08-31 02:54:59,70.1,68,30.13,NNE,19,0,1.2,93,0.00,,,0.00,0,0,n/a,2026-08-31T06:54:59Z
2026-08-31 02:59:58,70,67.9,30.13,NE,34,0,0,93,0.00,,,0.00,0,0,n/a,2026-08-31T06:59:58Z
2026-08-31 03:04:56,69.9,67.8,30.12,NE,34,0,0,93,0.00,,,0.00,0,0,n/a,2026-08-31T07:04:56Z
2026-08-31 03:09:56,69.7,67.6,30.12,NE,34,0,2.3,93,0.00,,,0.00,0,0,n/a,2026-08-31T07:09:56Z
2026-08-31 03:14:57,69.6,67.5,30.12,NE,34,0.4,1.2,93,0.00,,,0.00,0,0,n/a,2026-08-31T07:14:57Z
2026-08-31 03:19:57,69.6,67.5,30.12,NE,34,0.1,2.3,93,0.00,,,0.00,0,0,n/a,2026-08-31T07:19:57Z
2026-08-31 03:24:57,69.5,67.4,30.12,NE,34,0.1,1.2,93,0.00,,,0.00,0,0,n/a,2026-08-31T07:24:57Z
2026-08-31 03:29:56,69.4,67.3,30.12,NE,34,0,0,93,0.00,,,0.00,0,0,n/a,2026-08-31T07:29:56Z
2026-08-31 03:34:59,69.3,67.2,30.12,NE,34,0,0,93,0.00,,,0.00,0,0,n/a,2026-08-31T07:34:59Z
2026-08-31 03:39:59,69.1,67,30.12,NE,34,0,0,93,0.00,,,0.00,0,0,n/a,2026-08-31T07:39:59Z